createdAt,value
2018-11-29T00:00:36.817Z,3.39
2018-11-29T00:05:40.700Z,3.43
2018-11-29T00:10:43.897Z,3.38
2018-11-29T00:15:47.097Z,3.35
2018-11-29T00:20:50.253Z,3.41
2018-11-29T00:25:53.447Z,3.36
2018-11-29T00:30:56.721Z,3.48
2018-11-29T00:35:59.865Z,3.37
2018-11-29T00:41:03.060Z,3.56
2018-11-29T00:46:06.291Z,3.48
2018-11-29T00:51:09.456Z,3.52
2018-11-29T00:56:12.645Z,3.68
2018-11-29T01:01:15.792Z,3.70
2018-11-29T01:06:18.954Z,3.70
2018-11-29T01:11:22.180Z,3.70
2018-11-29T01:16:25.352Z,3.89
2018-11-29T01:21:28.629Z,3.75
2018-11-29T01:26:31.801Z,3.94
2018-11-29T01:31:35.500Z,3.78
2018-11-29T01:36:38.733Z,3.80
2018-11-29T01:41:41.952Z,3.79
2018-11-29T01:46:45.149Z,3.60
2018-11-29T01:51:48.288Z,3.66
2018-11-29T01:56:51.449Z,3.73
2018-11-29T02:01:54.615Z,3.93
2018-11-29T02:06:57.752Z,3.95
2018-11-29T02:12:00.992Z,3.96
2018-11-29T02:17:05.281Z,3.88
2018-11-29T02:22:08.516Z,3.84
2018-11-29T02:27:11.777Z,3.98
2018-11-29T02:32:14.921Z,4.00
2018-11-29T02:37:18.165Z,4.01
2018-11-29T02:42:21.343Z,4.06
2018-11-29T02:47:24.554Z,3.98
2018-11-29T02:52:27.712Z,3.93
2018-11-29T02:57:31.070Z,3.95
2018-11-29T03:02:34.217Z,3.88
2018-11-29T03:07:38.057Z,3.89
2018-11-29T03:12:41.714Z,3.83
2018-11-29T03:17:45.206Z,3.77
2018-11-29T03:22:48.360Z,3.74
2018-11-29T03:27:52.434Z,3.68
2018-11-29T03:32:55.677Z,3.68
2018-11-29T03:37:58.906Z,3.65
2018-11-29T03:43:02.155Z,3.53
2018-11-29T03:48:05.308Z,3.45
2018-11-29T03:53:08.492Z,3.39
2018-11-29T03:58:11.638Z,3.41
2018-11-29T04:03:14.781Z,3.33
2018-11-29T04:08:17.924Z,3.36
2018-11-29T04:13:21.068Z,3.42
2018-11-29T04:18:24.345Z,3.48
2018-11-29T04:23:27.507Z,3.49
2018-11-29T04:28:30.759Z,3.46
2018-11-29T04:33:33.903Z,3.51
2018-11-29T04:38:37.228Z,3.49
2018-11-29T04:43:40.493Z,3.48
2018-11-29T04:48:43.653Z,3.60
2018-11-29T04:53:46.829Z,3.48
2018-11-29T04:58:49.973Z,3.43
2018-11-29T05:03:54.078Z,3.43
2018-11-29T05:08:57.327Z,3.32
2018-11-29T05:14:01.456Z,3.45
2018-11-29T05:19:04.666Z,3.36
2018-11-29T05:24:07.872Z,3.36
2018-11-29T05:29:10.992Z,3.15
2018-11-29T05:34:14.402Z,3.15
2018-11-29T05:39:18.209Z,3.14
2018-11-29T05:44:21.366Z,3.12
2018-11-29T05:49:24.769Z,3.10
2018-11-29T05:54:27.978Z,3.15
2018-11-29T05:59:31.162Z,3.12
2018-11-29T06:04:34.553Z,3.24
2018-11-29T06:09:37.781Z,3.01
2018-11-29T06:14:40.965Z,2.94
2018-11-29T06:19:44.119Z,2.80
2018-11-29T06:24:47.820Z,2.72
2018-11-29T06:29:51.104Z,2.64
2018-11-29T06:34:54.328Z,2.69
2018-11-29T06:39:57.621Z,2.82
2018-11-29T06:45:00.821Z,2.78
2018-11-29T06:50:08.858Z,2.82
2018-11-29T06:55:16.063Z,2.82
2018-11-29T07:00:26.367Z,2.67
2018-11-29T07:05:29.532Z,2.73
2018-11-29T07:10:33.165Z,2.69
2018-11-29T07:15:36.381Z,2.75
2018-11-29T07:20:39.582Z,2.78
2018-11-29T07:25:42.793Z,2.96
2018-11-29T07:30:45.956Z,3.26
2018-11-29T07:35:49.118Z,3.32
2018-11-29T07:40:52.604Z,3.54
2018-11-29T07:45:55.752Z,3.78
2018-11-29T07:50:58.956Z,4.11
2018-11-29T07:56:02.140Z,3.94
2018-11-29T08:01:06.101Z,4.19
2018-11-29T08:06:09.288Z,4.13
2018-11-29T08:11:12.554Z,4.16
2018-11-29T08:16:15.858Z,4.33
2018-11-29T08:21:19.580Z,4.42
2018-11-29T08:26:22.799Z,4.47
2018-11-29T08:31:25.982Z,4.50
2018-11-29T08:36:29.196Z,4.75
2018-11-29T08:41:33.322Z,5.00
2018-11-29T08:46:36.532Z,5.13
2018-11-29T08:51:40.357Z,5.16
2018-11-29T08:56:43.838Z,5.54
2018-11-29T09:01:47.582Z,5.73
2018-11-29T09:06:50.816Z,6.07
2018-11-29T09:11:53.981Z,6.18
2018-11-29T09:16:57.329Z,6.31
2018-11-29T09:22:01.254Z,6.43
2018-11-29T09:27:04.664Z,6.25
2018-11-29T09:32:07.984Z,6.58
2018-11-29T09:37:11.286Z,6.53
2018-11-29T09:42:14.721Z,6.84
2018-11-29T09:47:17.901Z,6.89
2018-11-29T09:52:21.091Z,6.61
2018-11-29T09:57:24.321Z,6.76
2018-11-29T10:02:27.486Z,6.79
2018-11-29T10:07:30.721Z,6.90
2018-11-29T10:12:33.977Z,6.97
2018-11-29T10:17:37.207Z,7.47
2018-11-29T10:22:41.861Z,7.61
2018-11-29T10:27:47.812Z,7.54
2018-11-29T10:32:51.049Z,7.45
2018-11-29T10:37:54.237Z,7.76
2018-11-29T10:42:57.964Z,7.72
2018-11-29T10:48:01.125Z,7.82
2018-11-29T10:53:04.700Z,8.10
2018-11-29T10:58:07.886Z,8.27
2018-11-29T11:03:17.257Z,8.40
2018-11-29T11:08:21.034Z,8.52
2018-11-29T11:13:24.313Z,8.64
2018-11-29T11:18:27.606Z,8.63
2018-11-29T11:23:30.777Z,8.77
2018-11-29T11:28:34.017Z,8.95
2018-11-29T11:33:37.754Z,8.98
2018-11-29T11:38:40.976Z,9.06
2018-11-29T11:43:44.243Z,8.88
2018-11-29T11:48:47.430Z,8.82
2018-11-29T11:53:50.769Z,8.83
2018-11-29T11:58:54.086Z,9.10
2018-11-29T12:03:57.400Z,9.03
2018-11-29T12:09:00.721Z,9.28
2018-11-29T12:14:04.072Z,9.18
2018-11-29T12:19:07.299Z,9.22
2018-11-29T12:24:10.512Z,9.44
2018-11-29T12:29:14.564Z,9.58
2018-11-29T12:34:17.759Z,9.61
2018-11-29T12:39:21.625Z,9.53
2018-11-29T12:44:24.832Z,9.53
2018-11-29T12:49:27.983Z,9.46
2018-11-29T12:54:31.154Z,9.37
2018-11-29T12:59:35.346Z,9.51
2018-11-29T13:04:39.546Z,9.20
2018-11-29T13:09:42.729Z,9.23
2018-11-29T13:14:45.965Z,9.38
2018-11-29T13:19:49.159Z,9.25
2018-11-29T13:24:52.309Z,9.05
2018-11-29T13:29:55.504Z,8.85
2018-11-29T13:34:58.677Z,8.79
2018-11-29T13:40:01.894Z,8.98
2018-11-29T13:45:08.864Z,8.67
2018-11-29T13:50:14.466Z,8.55
2018-11-29T13:55:17.695Z,8.49
2018-11-29T14:00:22.314Z,8.53
2018-11-29T14:05:25.580Z,8.42
2018-11-29T14:10:28.742Z,8.40
2018-11-29T14:15:31.989Z,8.22
2018-11-29T14:20:35.511Z,8.28
2018-11-29T14:25:38.488Z,8.17
2018-11-29T14:30:41.647Z,8.20
2018-11-29T14:35:44.837Z,8.44
2018-11-29T14:40:47.975Z,8.25
2018-11-29T14:45:51.171Z,8.05
2018-11-29T14:50:54.394Z,7.85
2018-11-29T14:55:57.624Z,7.55
2018-11-29T15:01:00.861Z,7.53
2018-11-29T15:06:04.089Z,7.50
2018-11-29T15:11:07.305Z,7.49
2018-11-29T15:16:10.552Z,7.36
2018-11-29T15:21:13.737Z,7.31
2018-11-29T15:26:16.953Z,7.31
2018-11-29T15:31:20.176Z,7.09
2018-11-29T15:36:23.410Z,7.12
2018-11-29T15:41:26.634Z,7.02
2018-11-29T15:46:29.833Z,7.05
2018-11-29T15:51:33.022Z,7.04
2018-11-29T15:56:36.272Z,7.02
2018-11-29T16:01:39.483Z,7.01
2018-11-29T16:06:42.710Z,6.98
2018-11-29T16:11:45.978Z,6.93
2018-11-29T16:16:49.181Z,6.92
2018-11-29T16:21:52.394Z,6.76
2018-11-29T16:26:55.541Z,6.75
2018-11-29T16:31:58.782Z,6.80
2018-11-29T16:37:02.051Z,6.69
2018-11-29T16:42:05.424Z,6.73
2018-11-29T16:47:08.629Z,6.82
2018-11-29T16:52:11.922Z,6.78
2018-11-29T16:57:15.126Z,6.74
2018-11-29T17:02:18.357Z,6.90
2018-11-29T17:07:21.649Z,7.05
2018-11-29T17:12:24.832Z,6.87
2018-11-29T17:17:28.078Z,7.00
2018-11-29T17:22:31.336Z,7.00
2018-11-29T17:27:34.626Z,6.68
2018-11-29T17:32:37.856Z,6.75
2018-11-29T17:37:41.133Z,6.60
2018-11-29T17:42:44.363Z,6.67
2018-11-29T17:47:48.365Z,6.45
2018-11-29T17:52:51.627Z,6.57
2018-11-29T17:57:54.914Z,6.36
2018-11-29T18:02:58.233Z,6.21
2018-11-29T18:08:01.505Z,6.05
2018-11-29T18:13:09.949Z,6.16
2018-11-29T18:18:13.406Z,6.12
2018-11-29T18:23:16.703Z,6.11
2018-11-29T18:28:19.995Z,5.96
2018-11-29T18:33:23.218Z,6.00
2018-11-29T18:38:26.467Z,5.92
2018-11-29T18:43:29.692Z,5.83
2018-11-29T18:48:32.929Z,5.71
2018-11-29T18:53:36.206Z,5.81
2018-11-29T18:58:41.301Z,5.69
2018-11-29T19:03:45.378Z,5.68
2018-11-29T19:08:48.721Z,5.69
2018-11-29T19:13:52.067Z,5.64
2018-11-29T19:18:55.465Z,5.67
2018-11-29T19:23:59.227Z,5.75
2018-11-29T19:29:02.648Z,5.82
2018-11-29T19:34:06.236Z,5.71
2018-11-29T19:39:09.733Z,5.63
2018-11-29T19:44:14.579Z,5.67
2018-11-29T19:49:17.865Z,5.49
2018-11-29T19:54:21.218Z,5.34
2018-11-29T19:59:24.578Z,5.28
2018-11-29T20:04:27.926Z,5.20
2018-11-29T20:09:31.261Z,5.19
2018-11-29T20:14:34.692Z,5.16
2018-11-29T20:19:38.073Z,5.19
2018-11-29T20:24:41.396Z,5.19
2018-11-29T20:29:44.678Z,5.10
2018-11-29T20:34:47.970Z,5.03
2018-11-29T20:39:51.379Z,5.01
2018-11-29T20:44:54.667Z,4.95
2018-11-29T20:49:57.951Z,4.90
2018-11-29T20:55:01.289Z,4.84
2018-11-29T21:00:09.918Z,4.76
2018-11-29T21:05:16.134Z,4.77
2018-11-29T21:10:22.233Z,4.65
2018-11-29T21:15:25.603Z,4.49
2018-11-29T21:20:28.912Z,4.43
2018-11-29T21:25:32.134Z,4.42
2018-11-29T21:30:35.494Z,4.39
2018-11-29T21:35:38.915Z,4.30
2018-11-29T21:41:00.969Z,4.30
2018-11-29T21:46:04.258Z,4.22
2018-11-29T21:51:08.340Z,4.13
2018-11-29T21:56:11.588Z,4.02
2018-11-29T22:01:14.881Z,3.95
2018-11-29T22:06:18.076Z,3.93
2018-11-29T22:11:21.312Z,3.85
2018-11-29T22:16:24.560Z,3.70
2018-11-29T22:21:27.793Z,3.66
2018-11-29T22:26:31.073Z,3.61
2018-11-29T22:31:34.301Z,3.67
2018-11-29T22:36:37.477Z,3.66
2018-11-29T22:41:47.456Z,3.65
2018-11-29T22:46:50.744Z,3.65
2018-11-29T22:51:53.981Z,3.80
2018-11-29T22:56:57.201Z,3.68
2018-11-29T23:02:00.440Z,3.61
2018-11-29T23:07:03.695Z,3.68
2018-11-29T23:12:06.853Z,3.69
2018-11-29T23:17:10.332Z,3.49
2018-11-29T23:22:13.645Z,3.42
2018-11-29T23:27:16.846Z,3.50
2018-11-29T23:32:20.141Z,3.50
2018-11-29T23:37:23.347Z,3.41
2018-11-29T23:42:26.515Z,3.18
2018-11-29T23:47:29.696Z,3.17
2018-11-29T23:52:32.854Z,3.20
2018-11-29T23:57:36.036Z,3.28
